Time;durP1;ratioP1;P1;durP2;ratioP2;P2;SDS_P1;SDS_P2;PMS_P1;PMS_P2;Temp;Humidity;BMP_temperature;BMP_pressure;BME280_temperature;BME280_humidity;BME280_pressure;Samples;Min_cycle;Max_cycle;Signal;HPM_P1;HPM_P2
2022/03/11 00:01:13;;;;;;;16.17;7.35;;;;;;;-0.86;52.47;101675.59;5072676;28;20461;-79
2022/03/11 00:03:40;;;;;;;13.20;7.38;;;;;;;-1.07;52.11;101654.84;5072329;28;20025;-78
2022/03/11 00:06:06;;;;;;;13.27;7.10;;;;;;;-1.12;52.08;101645.22;5054908;28;20020;-78
2022/03/11 00:08:32;;;;;;;17.13;7.38;;;;;;;-1.07;51.72;101666.25;5072757;28;20023;-80
2022/03/11 00:10:57;;;;;;;11.77;7.00;;;;;;;-1.22;52.11;101670.03;5072609;28;20043;-80
2022/03/11 00:13:24;;;;;;;16.38;6.97;;;;;;;-1.06;52.14;101683.84;5072844;28;20470;-80
2022/03/11 00:15:52;;;;;;;14.60;7.55;;;;;;;-1.04;52.37;101683.84;5055088;28;20032;-78
2022/03/11 00:18:20;;;;;;;17.38;7.75;;;;;;;-1.25;51.66;101650.72;5021754;28;20101;-79
2022/03/11 00:20:46;;;;;;;13.90;7.30;;;;;;;-1.18;52.18;101674.38;5054873;28;20498;-79
2022/03/11 00:23:12;;;;;;;14.30;7.45;;;;;;;-1.32;52.11;101655.25;5054762;28;20057;-79
2022/03/11 00:25:38;;;;;;;11.82;7.13;;;;;;;-1.13;52.28;101687.47;5072779;28;20016;-79
2022/03/11 00:28:07;;;;;;;17.30;7.93;;;;;;;-1.15;52.11;101674.31;5072700;28;20048;-80
2022/03/11 00:30:33;;;;;;;14.88;7.97;;;;;;;-1.47;52.43;101626.50;5072845;28;20020;-80
2022/03/11 00:32:59;;;;;;;19.00;8.60;;;;;;;-1.39;52.62;101643.06;5054119;28;20040;-81
2022/03/11 00:35:24;;;;;;;14.00;7.78;;;;;;;-1.47;52.10;101615.94;5072337;28;20033;-80
2022/03/11 00:37:51;;;;;;;13.10;7.30;;;;;;;-1.30;51.76;101650.81;5058498;28;20031;-79
2022/03/11 00:40:17;;;;;;;16.05;7.80;;;;;;;-1.40;52.05;101654.50;5054615;28;20035;-79
2022/03/11 00:42:43;;;;;;;12.60;7.38;;;;;;;-1.36;52.21;101648.28;5072656;28;20478;-79
2022/03/11 00:45:09;;;;;;;15.57;9.05;;;;;;;-1.56;52.38;101623.97;5054493;28;20039;-79
2022/03/11 00:47:36;;;;;;;14.05;7.00;;;;;;;-1.45;52.57;101652.84;5072386;28;20029;-79
2022/03/11 00:50:04;;;;;;;14.15;7.07;;;;;;;-1.51;52.60;101666.13;5057351;28;20032;-79
2022/03/11 00:52:30;;;;;;;12.25;7.72;;;;;;;-1.55;53.36;101649.47;5089205;28;20028;-79
2022/03/11 00:54:56;;;;;;;12.57;8.07;;;;;;;-1.36;52.47;101677.31;5065250;28;20119;-79
2022/03/11 00:57:23;;;;;;;15.00;6.95;;;;;;;-1.40;52.77;101667.69;5058098;28;20395;-79
2022/03/11 00:59:48;;;;;;;15.05;7.97;;;;;;;-1.73;52.61;101634.81;5076106;28;20028;-78
2022/03/11 01:02:14;;;;;;;12.27;7.82;;;;;;;-1.61;53.14;101664.50;5075565;28;20478;-79
2022/03/11 01:04:41;;;;;;;18.83;7.90;;;;;;;-1.85;53.48;101652.56;5076104;28;20406;-79
2022/03/11 01:07:06;;;;;;;18.23;8.43;;;;;;;-1.95;53.29;101622.81;5057686;28;20008;-78
2022/03/11 01:09:32;;;;;;;14.35;7.55;;;;;;;-2.06;53.47;101624.75;5058123;28;20017;-78
2022/03/11 01:12:01;;;;;;;14.50;7.45;;;;;;;-1.92;53.98;101650.91;5075641;28;20036;-78
2022/03/11 01:14:27;;;;;;;12.13;8.00;;;;;;;-1.91;53.92;101657.91;5075508;28;20031;-79
2022/03/11 01:16:53;;;;;;;23.60;8.52;;;;;;;-2.10;54.11;101632.69;5075764;28;20024;-78
2022/03/11 01:19:19;;;;;;;14.77;8.30;;;;;;;-2.17;54.05;101612.63;5057765;28;20024;-78
2022/03/11 01:21:45;;;;;;;14.43;8.07;;;;;;;-1.90;53.89;101643.84;5075589;28;20060;-78
2022/03/11 01:24:13;;;;;;;17.05;8.80;;;;;;;-2.11;54.01;101633.63;5057682;28;20091;-78
2022/03/11 01:26:39;;;;;;;20.83;9.38;;;;;;;-2.30;54.28;101620.69;5075980;28;20017;-78
2022/03/11 01:29:04;;;;;;;18.00;8.10;;;;;;;-2.32;54.22;101598.75;5075417;28;20050;-78
2022/03/11 01:31:31;;;;;;;15.85;8.48;;;;;;;-1.94;54.13;101673.78;5075714;28;20025;-78
2022/03/11 01:34:00;;;;;;;17.05;8.98;;;;;;;-2.13;54.53;101648.56;5057509;28;20028;-78
2022/03/11 01:36:25;;;;;;;44.38;16.90;;;;;;;-2.30;54.28;101611.91;5075034;28;20040;-78
2022/03/11 01:38:51;;;;;;;28.88;12.38;;;;;;;-2.16;54.46;101643.31;5075396;28;20021;-77
2022/03/11 01:41:16;;;;;;;17.38;8.73;;;;;;;-2.16;54.33;101627.50;5057269;28;20020;-78
2022/03/11 01:43:53;;;;;;;17.70;9.02;;;;;;;-2.14;53.99;101629.22;5058160;28;20027;-78
2022/03/11 01:46:19;;;;;;;23.38;10.10;;;;;;;-1.90;54.12;101684.28;5057255;28;20099;-79
2022/03/11 01:48:45;;;;;;;16.52;8.10;;;;;;;-2.24;54.62;101609.19;5075352;28;20051;-79
2022/03/11 01:51:12;;;;;;;19.80;9.13;;;;;;;-2.06;54.49;101637.06;5057968;28;20462;-79
2022/03/11 01:53:38;;;;;;;15.90;8.30;;;;;;;-2.04;54.27;101640.53;5075563;28;20028;-78
2022/03/11 01:56:04;;;;;;;17.80;7.72;;;;;;;-2.08;53.98;101641.47;5075661;28;20025;-80
2022/03/11 01:58:34;;;;;;;14.77;8.00;;;;;;;-2.23;54.37;101618.81;5075272;28;20044;-80
2022/03/11 02:01:00;;;;;;;15.93;7.30;;;;;;;-2.13;54.73;101627.47;5039906;28;20036;-79
2022/03/11 02:03:26;;;;;;;18.85;8.38;;;;;;;-2.29;54.75;101613.63;5075157;28;20047;-80
2022/03/11 02:05:52;;;;;;;16.45;9.23;;;;;;;-2.07;54.58;101651.09;5075065;28;20055;-79
2022/03/11 02:08:20;;;;;;;14.02;7.97;;;;;;;-2.19;55.29;101625.78;5057365;28;20032;-78
2022/03/11 02:10:45;;;;;;;17.77;7.47;;;;;;;-2.03;54.54;101639.63;5075336;28;20210;-78
2022/03/11 02:13:11;;;;;;;16.75;8.63;;;;;;;-1.94;54.33;101657.97;5075345;28;20059;-78
2022/03/11 02:15:36;;;;;;;14.30;8.30;;;;;;;-1.87;54.37;101686.00;5039928;28;20486;-78
2022/03/11 02:18:02;;;;;;;15.40;8.45;;;;;;;-2.04;54.37;101643.16;5075031;28;20501;-79
2022/03/11 02:20:28;;;;;;;13.63;7.57;;;;;;;-1.99;54.61;101676.50;5074471;28;20056;-78
2022/03/11 02:22:57;;;;;;;13.32;7.40;;;;;;;-1.87;54.60;101696.53;5074692;28;20028;-78
2022/03/11 02:25:24;;;;;;;15.75;8.30;;;;;;;-2.26;55.04;101630.28;5074648;28;20514;-78
2022/03/11 02:27:49;;;;;;;15.25;8.90;;;;;;;-2.09;54.96;101658.16;5025466;28;20190;-80
2022/03/11 02:30:20;;;;;;;23.95;9.30;;;;;;;-2.13;55.03;101646.78;5088774;28;20020;-79
2022/03/11 02:32:46;;;;;;;20.90;10.15;;;;;;;-2.05;55.15;101657.25;5061928;28;20102;-78
2022/03/11 02:35:14;;;;;;;16.08;9.18;;;;;;;-1.66;54.48;101683.06;5056254;28;20092;-78
2022/03/11 02:37:39;;;;;;;16.17;8.88;;;;;;;-1.92;54.53;101649.13;5073997;28;20146;-78
2022/03/11 02:40:06;;;;;;;16.45;9.30;;;;;;;-1.75;54.45;101675.28;5056073;28;20486;-78
2022/03/11 02:42:33;;;;;;;14.98;8.07;;;;;;;-1.53;54.06;101703.09;5074058;28;20048;-78
2022/03/11 02:45:03;;;;;;;18.45;8.90;;;;;;;-1.45;54.41;101710.88;5074012;28;20490;-78
2022/03/11 02:47:30;;;;;;;15.15;8.90;;;;;;;-1.44;54.05;101676.56;5074056;28;20367;-79
2022/03/11 02:49:56;;;;;;;22.85;9.57;;;;;;;-1.48;54.04;101668.72;5074150;28;20081;-79
2022/03/11 02:52:22;;;;;;;23.13;8.60;;;;;;;-1.63;53.56;101658.41;5055584;28;20028;-79
2022/03/11 02:54:50;;;;;;;20.23;9.23;;;;;;;-1.52;53.72;101654.69;5073863;28;20055;-79
2022/03/11 02:57:19;;;;;;;20.13;9.95;;;;;;;-1.39;53.55;101656.25;5073841;28;20037;-78
2022/03/11 02:59:45;;;;;;;25.92;9.00;;;;;;;-1.16;53.36;101691.03;5056162;28;20542;-79
2022/03/11 03:02:12;;;;;;;17.08;7.85;;;;;;;-1.02;52.78;101697.88;5073849;28;20115;-79
2022/03/11 03:04:38;;;;;;;17.25;8.50;;;;;;;-1.04;52.49;101704.94;5073555;28;20024;-79
2022/03/11 03:07:04;;;;;;;23.30;8.77;;;;;;;-1.15;52.71;101690.16;5073194;28;20024;-79
2022/03/11 03:09:30;;;;;;;15.10;8.20;;;;;;;-1.14;52.43;101707.75;5054696;28;20032;-79
2022/03/11 03:11:55;;;;;;;14.75;7.78;;;;;;;-1.19;52.75;101691.09;5072754;28;20032;-79
2022/03/11 03:14:21;;;;;;;16.20;7.82;;;;;;;-1.24;52.29;101690.31;5054858;28;20111;-79
2022/03/11 03:16:46;;;;;;;16.02;8.77;;;;;;;-1.03;52.42;101704.03;5073356;28;20025;-79
2022/03/11 03:19:14;;;;;;;13.10;7.78;;;;;;;-0.95;51.93;101712.72;5073626;28;20024;-79
2022/03/11 03:21:39;;;;;;;19.70;8.23;;;;;;;-0.89;52.19;101721.41;5073327;28;20089;-79
2022/03/11 03:24:06;;;;;;;16.50;8.45;;;;;;;-0.78;51.39;101727.38;5073083;28;20025;-79
2022/03/11 03:26:32;;;;;;;16.55;8.52;;;;;;;-0.77;51.82;101728.25;5072889;28;20016;-80
2022/03/11 03:28:58;;;;;;;17.13;8.82;;;;;;;-0.71;51.33;101742.22;5055082;28;20027;-78
2022/03/11 03:31:24;;;;;;;17.75;8.55;;;;;;;-0.77;51.57;101715.03;5055048;28;20028;-78
2022/03/11 03:33:50;;;;;;;15.23;8.15;;;;;;;-0.83;51.23;101691.38;5055013;28;20046;-78
2022/03/11 03:36:16;;;;;;;17.38;9.13;;;;;;;-0.57;51.48;101713.78;5073078;28;20056;-78
2022/03/11 03:38:41;;;;;;;13.43;7.65;;;;;;;-0.62;50.99;101725.31;5055080;28;20052;-80
2022/03/11 03:41:08;;;;;;;15.13;8.80;;;;;;;-0.54;50.26;101731.34;5072536;28;20099;-78
2022/03/11 03:43:34;;;;;;;15.18;8.05;;;;;;;-0.98;50.55;101700.44;5054625;28;20355;-78
2022/03/11 03:46:00;;;;;;;18.50;7.38;;;;;;;-0.99;50.75;101700.44;5054556;28;20025;-80
2022/03/11 03:48:26;;;;;;;13.60;7.80;;;;;;;-0.85;50.81;101731.00;5072956;28;20059;-80
2022/03/11 03:50:51;;;;;;;19.48;7.82;;;;;;;-1.08;50.42;101674.22;5072760;28;20059;-78
2022/03/11 03:53:17;;;;;;;13.60;7.13;;;;;;;-0.99;49.91;101685.50;5071961;28;20024;-78
2022/03/11 03:55:43;;;;;;;14.02;7.28;;;;;;;-1.13;49.70;101674.28;5037707;28;20131;-78
2022/03/11 03:58:09;;;;;;;14.35;7.57;;;;;;;-1.12;48.98;101684.81;5071997;28;20044;-78
2022/03/11 04:00:34;;;;;;;16.65;7.68;;;;;;;-0.87;48.96;101726.66;5072719;28;20029;-79
2022/03/11 04:03:01;;;;;;;15.30;7.45;;;;;;;-0.94;48.65;101714.44;5073724;28;20169;-79
2022/03/11 04:05:27;;;;;;;13.70;7.53;;;;;;;-1.11;48.88;101678.66;5072795;28;20028;-79
2022/03/11 04:07:52;;;;;;;16.10;7.53;;;;;;;-1.24;48.86;101657.75;5081267;28;20024;-79
2022/03/11 04:10:18;;;;;;;14.45;7.85;;;;;;;-1.39;49.34;101661.53;5061491;28;20478;-79
2022/03/11 04:12:44;;;;;;;16.70;8.93;;;;;;;-1.45;49.63;101669.53;5072451;28;20016;-79
2022/03/11 04:15:11;;;;;;;25.92;8.18;;;;;;;-1.48;49.55;101689.81;5054466;28;20037;-79
2022/03/11 04:17:37;;;;;;;15.20;7.10;;;;;;;-1.48;49.84;101684.53;5072644;28;20017;-79
2022/03/11 04:20:04;;;;;;;17.98;7.90;;;;;;;-1.47;50.13;101697.72;5072471;28;20032;-79
2022/03/11 04:22:31;;;;;;;16.13;7.55;;;;;;;-1.65;50.08;101692.69;5072868;28;20024;-79
2022/03/11 04:24:57;;;;;;;15.63;8.93;;;;;;;-1.65;51.06;101692.69;5075705;28;20020;-79
2022/03/11 04:27:23;;;;;;;17.05;7.47;;;;;;;-1.68;50.44;101703.28;5078341;28;20554;-77
2022/03/11 04:29:50;;;;;;;15.20;8.23;;;;;;;-1.73;51.37;101732.38;5079594;28;20398;-81
2022/03/11 04:32:15;;;;;;;14.48;8.05;;;;;;;-1.69;51.94;101744.63;5058870;28;20086;-80
2022/03/11 04:34:41;;;;;;;17.48;8.70;;;;;;;-1.91;51.70;101705.38;5059250;28;20029;-81
2022/03/11 04:37:09;;;;;;;21.38;9.48;;;;;;;-1.75;51.97;101718.34;5077484;28;20078;-81
2022/03/11 04:39:34;;;;;;;18.23;7.88;;;;;;;-1.76;51.83;101715.72;5076986;28;20028;-82
2022/03/11 04:42:02;;;;;;;12.18;7.28;;;;;;;-1.90;51.92;101688.66;5077439;28;20039;-84
2022/03/11 04:44:34;;;;;;;22.80;10.07;;;;;;;-1.73;52.12;101720.94;5043221;28;20499;-81
2022/03/11 04:47:00;;;;;;;16.35;9.00;;;;;;;-1.91;52.27;101705.38;5043385;28;20105;-82
2022/03/11 04:49:26;;;;;;;16.67;8.95;;;;;;;-1.68;52.57;101734.91;5058387;28;20025;-76
2022/03/11 04:51:52;;;;;;;20.92;9.48;;;;;;;-1.57;52.33;101758.53;5076454;28;20030;-78
2022/03/11 04:54:17;;;;;;;22.35;8.85;;;;;;;-1.36;52.15;101766.13;5057912;28;20024;-75
2022/03/11 04:56:43;;;;;;;19.23;8.65;;;;;;;-1.43;51.92;101754.78;5058676;28;20051;-78
2022/03/11 04:59:09;;;;;;;17.55;8.50;;;;;;;-1.47;52.05;101739.94;5061486;28;20055;-83
2022/03/11 05:01:35;;;;;;;25.92;10.73;;;;;;;-1.37;52.12;101759.09;5077763;28;20351;-77
2022/03/11 05:04:01;;;;;;;19.70;8.00;;;;;;;-1.37;51.13;101751.19;5057645;28;20107;-77
2022/03/11 05:06:28;;;;;;;20.30;10.02;;;;;;;-1.44;51.45;101750.44;5057134;28;20028;-76
2022/03/11 05:08:53;;;;;;;23.92;10.32;;;;;;;-1.31;51.71;101770.44;5074380;28;20063;-76
2022/03/11 05:11:20;;;;;;;19.85;9.48;;;;;;;-1.64;51.19;101712.91;5074987;28;20491;-77
2022/03/11 05:13:46;;;;;;;18.17;8.98;;;;;;;-1.51;51.06;101748.78;5074674;28;20028;-77
2022/03/11 05:16:11;;;;;;;19.45;10.20;;;;;;;-1.42;50.93;101755.69;5040669;28;20124;-77
2022/03/11 05:18:37;;;;;;;19.25;9.65;;;;;;;-1.54;51.33;101764.66;5056959;28;20028;-77
2022/03/11 05:21:03;;;;;;;18.90;8.65;;;;;;;-1.49;51.30;101778.63;5056889;28;20036;-77
2022/03/11 05:23:30;;;;;;;21.73;9.20;;;;;;;-1.71;51.32;101724.41;5074343;28;20366;-78
2022/03/11 05:25:57;;;;;;;20.02;9.82;;;;;;;-1.84;51.54;101725.50;5057028;28;20406;-78
2022/03/11 05:28:23;;;;;;;20.38;8.73;;;;;;;-1.70;51.30;101728.81;5056923;28;20398;-77
2022/03/11 05:30:48;;;;;;;22.65;9.43;;;;;;;-1.54;51.45;101722.44;5039772;28;20028;-78
2022/03/11 05:33:19;;;;;;;19.38;9.63;;;;;;;-1.33;50.47;101763.47;5074807;28;20036;-77
2022/03/11 05:35:45;;;;;;;15.85;8.98;;;;;;;-1.42;50.30;101740.72;5073062;28;20498;-76
2022/03/11 05:38:10;;;;;;;18.77;9.88;;;;;;;-1.40;50.71;101754.75;5073884;28;20048;-77
2022/03/11 05:40:36;;;;;;;17.67;8.38;;;;;;;-1.74;50.59;101727.09;5056482;28;20094;-78
2022/03/11 05:43:02;;;;;;;18.58;9.32;;;;;;;-1.63;50.57;101754.22;5056751;28;20406;-77
2022/03/11 05:45:32;;;;;;;20.05;9.07;;;;;;;-1.82;51.02;101731.63;5059634;28;20095;-78
2022/03/11 05:47:57;;;;;;;19.80;9.73;;;;;;;-1.60;50.79;101763.84;5060969;28;20035;-78
2022/03/11 05:50:23;;;;;;;18.48;10.40;;;;;;;-1.60;50.69;101755.94;5056045;28;20021;-76
2022/03/11 05:52:50;;;;;;;25.38;10.32;;;;;;;-1.77;51.26;101737.69;5038882;28;20029;-78
2022/03/11 05:55:15;;;;;;;40.80;14.45;;;;;;;-1.46;51.10;101751.31;5074209;28;20103;-76
2022/03/11 05:57:43;;;;;;;38.33;15.85;;;;;;;-1.44;50.33;101742.53;5053942;28;20503;-76
2022/03/11 06:00:09;;;;;;;17.23;9.70;;;;;;;-1.26;50.22;101773.03;5031983;28;20025;-77
2022/03/11 06:02:38;;;;;;;18.80;9.98;;;;;;;-1.26;49.26;101763.34;5056002;28;20037;-79
2022/03/11 06:05:04;;;;;;;26.35;9.98;;;;;;;-1.37;49.05;101730.97;5050807;28;20017;-77
2022/03/11 06:07:30;;;;;;;18.88;9.73;;;;;;;-1.02;49.01;101763.88;5054094;28;20204;-77
2022/03/11 06:09:56;;;;;;;19.92;9.40;;;;;;;-1.06;48.50;101768.31;5036456;28;20060;-78
2022/03/11 06:12:21;;;;;;;25.88;7.88;;;;;;;-0.99;47.94;101774.38;5054134;28;20103;-78
2022/03/11 06:14:47;;;;;;;20.15;9.13;;;;;;;-1.19;48.29;101754.44;5036153;28;20424;-79
2022/03/11 06:17:12;;;;;;;16.42;8.90;;;;;;;-1.08;49.07;101793.00;5040275;28;20013;-78
2022/03/11 06:19:38;;;;;;;28.25;13.95;;;;;;;-1.08;48.03;101780.69;5035351;28;20020;-77
2022/03/11 06:22:03;;;;;;;18.23;8.98;;;;;;;-0.97;47.08;101793.69;5053051;28;20021;-80
2022/03/11 06:24:29;;;;;;;26.60;8.73;;;;;;;-1.10;46.61;101778.03;5053010;28;20647;-76
2022/03/11 06:26:55;;;;;;;14.60;7.85;;;;;;;-1.28;46.71;101770.41;5053216;28;20036;-78
2022/03/11 06:29:25;;;;;;;14.98;7.55;;;;;;;-1.30;46.54;101761.66;5054315;28;20486;-87
2022/03/11 06:31:50;;;;;;;18.70;8.82;;;;;;;-1.24;47.21;101795.00;5053144;28;20123;-82
2022/03/11 06:34:17;;;;;;;19.08;7.55;;;;;;;-1.39;46.89;101769.69;5019696;28;20057;-83
2022/03/11 06:36:43;;;;;;;19.08;7.68;;;;;;;-1.31;46.54;101751.97;5036513;28;20482;-82
2022/03/11 06:39:13;;;;;;;14.82;7.82;;;;;;;-1.30;46.23;101750.22;5053815;28;20078;-83
2022/03/11 06:41:41;;;;;;;17.33;8.45;;;;;;;-1.20;46.01;101730.72;5035982;28;20036;-84
2022/03/11 06:44:06;;;;;;;15.20;9.13;;;;;;;-0.80;45.41;101783.75;5036669;28;20053;-81
2022/03/11 06:46:32;;;;;;;43.78;7.35;;;;;;;-1.42;45.51;101732.81;5053723;28;20023;-82
2022/03/11 06:48:57;;;;;;;18.35;7.22;;;;;;;-1.46;45.53;101746.94;5037605;28;20021;-82
2022/03/11 06:51:23;;;;;;;13.88;7.38;;;;;;;-1.36;45.04;101727.44;5037370;28;20480;-85
2022/03/11 06:53:48;;;;;;;14.00;7.40;;;;;;;-1.11;45.66;101763.13;5036914;28;20025;-84
2022/03/11 06:56:15;;;;;;;14.25;7.75;;;;;;;-1.03;45.13;101759.47;5056858;28;20021;-83
2022/03/11 06:58:41;;;;;;;16.67;7.90;;;;;;;-0.86;45.32;101771.53;5068609;28;20044;-79
2022/03/11 07:01:51;;;;;;;20.88;8.57;;;;;;;-0.79;45.52;101767.00;5081516;28;20027;-81
2022/03/11 07:04:51;;;;;;;17.52;7.85;;;;;;;-0.68;45.37;101759.78;5037277;28;20033;-81
2022/03/11 07:07:17;;;;;;;14.63;8.20;;;;;;;-0.65;44.83;101757.09;5034815;28;20570;-82
2022/03/11 07:09:42;;;;;;;23.85;7.88;;;;;;;-0.70;44.33;101756.28;5042635;28;20029;-82
2022/03/11 07:12:08;;;;;;;12.52;6.68;;;;;;;-0.87;43.63;101732.81;5062521;28;20557;-81
2022/03/11 07:14:35;;;;;;;16.35;8.10;;;;;;;-0.97;44.33;101691.59;5060320;28;20039;-81
2022/03/11 07:17:05;;;;;;;14.68;7.72;;;;;;;-0.78;43.96;101748.50;5061331;28;20024;-83
2022/03/11 07:19:31;;;;;;;14.57;7.00;;;;;;;-0.69;43.27;101768.59;5062554;28;20055;-82
2022/03/11 07:21:58;;;;;;;12.40;6.68;;;;;;;-0.80;43.69;101760.88;5063502;28;20035;-80
2022/03/11 07:24:24;;;;;;;9.98;6.30;;;;;;;-0.83;43.32;101766.19;5042504;28;20045;-81
2022/03/11 07:26:50;;;;;;;19.02;7.80;;;;;;;-0.77;43.05;101767.84;5025692;28;20028;-81
2022/03/11 07:29:16;;;;;;;12.25;6.00;;;;;;;-0.94;42.67;101740.84;5057802;28;20181;-80
2022/03/11 07:31:41;;;;;;;14.32;7.55;;;;;;;-0.98;42.90;101713.66;5052528;28;20017;-81
2022/03/11 07:34:07;;;;;;;13.85;6.85;;;;;;;-0.74;42.84;101763.41;5060470;28;20124;-82
2022/03/11 07:36:34;;;;;;;15.48;7.45;;;;;;;-0.82;43.67;101725.66;5060853;28;20108;-81
2022/03/11 07:39:09;;;;;;;13.27;7.07;;;;;;;-0.58;42.71;101742.84;5060064;28;20027;-81
2022/03/11 07:41:36;;;;;;;17.35;7.18;;;;;;;-0.43;42.05;101758.44;5080186;28;20099;-81
2022/03/11 07:44:02;;;;;;;13.77;6.88;;;;;;;-0.34;42.15;101766.22;5054505;28;20540;-80
2022/03/11 07:46:29;;;;;;;15.10;7.30;;;;;;;-0.63;42.16;101731.50;5050772;28;20013;-82
2022/03/11 07:48:55;;;;;;;58.83;12.68;;;;;;;-0.39;42.36;101744.25;5078740;28;20017;-82
2022/03/11 07:51:21;;;;;;;13.18;7.47;;;;;;;-0.32;42.04;101737.97;5079547;28;20032;-83
2022/03/11 07:53:47;;;;;;;22.45;7.50;;;;;;;-0.28;40.91;101744.94;5061780;28;20496;-82
2022/03/11 07:56:14;;;;;;;17.05;7.05;;;;;;;-0.33;41.39;101756.47;5079694;28;20031;-82
2022/03/11 07:58:43;;;;;;;17.40;7.28;;;;;;;-0.34;41.35;101739.78;5069353;28;20033;-81
2022/03/11 08:01:09;;;;;;;15.98;7.88;;;;;;;-0.20;41.69;101727.16;5055982;28;20040;-82
2022/03/11 08:03:37;;;;;;;16.10;8.27;;;;;;;0.09;41.23;101738.94;5052341;28;20037;-81
2022/03/11 08:06:04;;;;;;;24.00;8.60;;;;;;;0.14;40.64;101724.69;5040483;28;20017;-81
2022/03/11 08:08:29;;;;;;;13.82;6.80;;;;;;;0.12;40.15;101729.16;5047341;28;20021;-80
2022/03/11 08:10:55;;;;;;;19.40;6.68;;;;;;;0.19;39.87;101766.91;5041205;28;20037;-81
2022/03/11 08:13:21;;;;;;;17.80;7.38;;;;;;;-0.08;40.32;101715.47;5074785;28;20039;-81
2022/03/11 08:15:47;;;;;;;30.52;15.52;;;;;;;-0.01;40.68;101739.13;5058583;28;20427;-81
2022/03/11 08:18:12;;;;;;;13.35;7.15;;;;;;;-0.12;40.39;101740.22;5057687;28;20100;-83
2022/03/11 08:20:38;;;;;;;12.80;7.03;;;;;;;-0.27;40.96;101738.75;5058319;28;20025;-82
2022/03/11 08:23:04;;;;;;;25.20;7.75;;;;;;;-0.23;40.69;101742.19;5060722;28;20025;-82
2022/03/11 08:25:30;;;;;;;17.38;7.85;;;;;;;-0.25;41.06;101741.38;5060099;28;20024;-80
2022/03/11 08:27:57;;;;;;;18.13;7.53;;;;;;;-0.31;41.17;101741.50;5057290;28;20363;-84
2022/03/11 08:30:24;;;;;;;22.23;7.57;;;;;;;-0.29;40.99;101729.09;5040526;28;20032;-82
2022/03/11 08:32:51;;;;;;;23.67;7.60;;;;;;;-0.26;40.77;101715.81;5060381;28;20040;-81
2022/03/11 08:35:17;;;;;;;16.10;8.00;;;;;;;-0.08;41.68;101724.28;5059990;28;20021;-81
2022/03/11 08:37:43;;;;;;;20.42;7.20;;;;;;;0.04;41.77;101741.66;5041732;28;20048;-81
2022/03/11 08:40:10;;;;;;;24.85;8.05;;;;;;;0.15;40.92;101729.09;5056187;28;20402;-82
2022/03/11 08:42:36;;;;;;;14.77;8.02;;;;;;;0.22;40.88;101730.69;5057349;28;20032;-82
2022/03/11 08:45:08;;;;;;;25.67;8.52;;;;;;;0.43;40.66;101726.69;5028323;28;20053;-81
2022/03/11 08:47:34;;;;;;;16.00;7.57;;;;;;;0.58;40.77;101712.25;5037386;28;20071;-82
2022/03/11 08:49:59;;;;;;;26.30;7.15;;;;;;;0.72;39.96;101705.72;5036845;28;20475;-82
2022/03/11 08:52:26;;;;;;;19.58;7.57;;;;;;;0.86;40.10;101711.56;5037216;28;20049;-82
2022/03/11 08:54:52;;;;;;;15.32;7.28;;;;;;;0.87;39.62;101702.72;5036880;28;20033;-82
2022/03/11 08:57:18;;;;;;;21.02;7.55;;;;;;;0.79;39.62;101717.94;5035986;28;20025;-80
2022/03/11 08:59:45;;;;;;;16.75;7.63;;;;;;;0.94;38.71;101722.84;5022094;28;20120;-81
2022/03/11 09:02:13;;;;;;;32.65;9.77;;;;;;;0.73;38.88;101696.91;5017425;28;20025;-81
2022/03/11 09:04:39;;;;;;;16.85;7.70;;;;;;;0.66;38.08;101711.19;5048580;28;20056;-81
2022/03/11 09:07:04;;;;;;;20.52;8.35;;;;;;;0.41;39.07;101710.88;5024406;28;20021;-81
2022/03/11 09:09:32;;;;;;;20.95;8.18;;;;;;;0.48;39.47;101740.72;5043518;28;20028;-82
2022/03/11 09:11:58;;;;;;;15.05;7.63;;;;;;;0.32;39.75;101718.13;5058315;28;20024;-81
2022/03/11 09:14:24;;;;;;;16.35;6.60;;;;;;;0.34;39.33;101754.22;5041443;28;20487;-81
2022/03/11 09:16:50;;;;;;;18.10;7.32;;;;;;;0.26;38.82;101731.50;5035190;28;20032;-82
2022/03/11 09:19:16;;;;;;;16.27;6.65;;;;;;;0.31;39.58;101771.94;5063222;28;20057;-82
2022/03/11 09:21:42;;;;;;;10.68;6.10;;;;;;;0.13;39.37;101730.00;5059244;28;20029;-81
2022/03/11 09:24:07;;;;;;;14.57;6.68;;;;;;;0.21;39.20;101759.84;5044031;28;20021;-82
2022/03/11 09:26:33;;;;;;;18.05;6.10;;;;;;;0.24;39.82;101771.22;5029293;28;20025;-81
2022/03/11 09:28:59;;;;;;;20.70;6.85;;;;;;;0.19;39.50;101756.31;5035131;28;20029;-82
2022/03/11 09:31:25;;;;;;;20.08;7.38;;;;;;;0.21;38.72;101749.25;5043829;28;20507;-81
2022/03/11 09:33:50;;;;;;;26.52;6.78;;;;;;;0.42;39.43;101764.66;5048299;28;20033;-82
2022/03/11 09:36:16;;;;;;;14.50;7.35;;;;;;;0.53;39.08;101774.09;5063970;28;20025;-81
2022/03/11 09:38:42;;;;;;;19.05;6.40;;;;;;;0.42;38.26;101736.44;5063316;28;20031;-82
2022/03/11 09:41:08;;;;;;;13.68;7.13;;;;;;;0.59;38.21;101783.69;5044939;28;20052;-80
2022/03/11 09:43:36;;;;;;;11.10;6.22;;;;;;;0.49;37.81;101768.91;5045270;28;20039;-81
2022/03/11 09:46:03;;;;;;;13.65;6.15;;;;;;;0.44;38.03;101763.72;5043387;28;20454;-81
2022/03/11 09:48:31;;;;;;;11.88;5.97;;;;;;;0.49;38.56;101764.47;5035957;28;20411;-81
2022/03/11 09:51:00;;;;;;;14.95;6.65;;;;;;;0.58;38.15;101757.25;5031693;28;20040;-83
2022/03/11 09:53:27;;;;;;;11.93;6.55;;;;;;;0.49;38.11;101776.84;5051461;28;20553;-82
2022/03/11 09:55:54;;;;;;;24.10;7.65;;;;;;;0.52;38.83;101750.34;5063019;28;20028;-82
2022/03/11 09:58:19;;;;;;;15.85;6.95;;;;;;;0.69;38.91;101752.59;5053643;28;20052;-81
2022/03/11 10:00:49;;;;;;;13.80;7.05;;;;;;;0.87;38.69;101768.03;5063930;28;20021;-82
2022/03/11 10:03:15;;;;;;;16.92;6.20;;;;;;;0.76;38.10;101747.13;5081362;28;20032;-80
2022/03/11 10:05:59;;;;;;;21.05;7.28;;;;;;;0.81;38.38;101741.72;5081235;28;20024;-81
2022/03/11 10:08:40;;;;;;;16.02;5.63;;;;;;;0.99;37.82;101789.81;5081102;28;20038;-81
2022/03/11 10:11:26;;;;;;;19.08;7.40;;;;;;;0.97;38.25;101765.16;5066353;28;20063;-79
2022/03/11 10:13:53;;;;;;;19.83;7.03;;;;;;;1.00;37.98;101765.09;5075613;28;20024;-81
2022/03/11 10:16:26;;;;;;;26.83;9.80;;;;;;;1.16;38.05;101759.41;5062474;28;20521;-81
2022/03/11 10:18:55;;;;;;;20.35;8.30;;;;;;;1.27;37.75;101752.94;5080950;28;20024;-81
2022/03/11 10:21:26;;;;;;;17.60;6.90;;;;;;;1.46;37.58;101769.25;5080328;28;20021;-81
2022/03/11 10:23:52;;;;;;;11.43;6.30;;;;;;;1.26;37.60;101750.31;5067924;28;20025;-81
2022/03/11 10:26:35;;;;;;;14.40;8.30;;;;;;;1.37;37.48;101745.63;5042760;28;20155;-80
2022/03/11 10:29:03;;;;;;;14.68;6.47;;;;;;;1.54;37.13;101762.81;5059600;28;20081;-80
2022/03/11 10:31:30;;;;;;;16.13;6.95;;;;;;;1.59;36.66;101754.75;5067045;28;20023;-81
2022/03/11 10:34:15;;;;;;;14.05;6.28;;;;;;;1.55;36.30;101769.88;5081512;28;20112;-82
2022/03/11 10:36:50;;;;;;;20.92;7.43;;;;;;;1.50;36.85;101770.88;5065717;28;20021;-81
2022/03/11 10:39:18;;;;;;;24.55;8.55;;;;;;;1.59;37.13;101766.22;5061156;28;20059;-81
2022/03/11 10:41:45;;;;;;;24.30;8.00;;;;;;;1.60;37.15;101754.72;5055285;28;20017;-82
2022/03/11 10:44:12;;;;;;;35.33;10.00;;;;;;;1.62;37.41;101762.63;5072314;28;20486;-81
2022/03/11 10:46:38;;;;;;;15.30;8.50;;;;;;;1.68;37.40;101759.81;5076238;28;20024;-81
2022/03/11 10:49:04;;;;;;;28.80;9.90;;;;;;;1.72;37.06;101745.53;5063046;28;20020;-81
2022/03/11 10:51:33;;;;;;;14.55;6.72;;;;;;;1.78;37.78;101766.59;5055144;28;20470;-82
2022/03/11 10:54:00;;;;;;;22.50;8.23;;;;;;;1.91;38.20;101762.69;5069471;28;20405;-82
2022/03/11 10:56:29;;;;;;;18.73;7.95;;;;;;;2.06;37.00;101743.69;5052415;28;20051;-82
2022/03/11 10:58:58;;;;;;;21.00;7.78;;;;;;;2.07;36.80;101737.50;5048983;28;20045;-81
2022/03/11 11:01:38;;;;;;;17.95;7.25;;;;;;;2.30;37.07;101754.50;5058254;28;20032;-81
2022/03/11 11:04:07;;;;;;;19.85;8.30;;;;;;;2.37;37.08;101745.44;5041826;28;20055;-81
2022/03/11 11:06:36;;;;;;;16.95;8.23;;;;;;;2.48;36.71;101746.00;5040400;28;20021;-79
2022/03/11 11:09:03;;;;;;;12.15;7.25;;;;;;;2.44;35.93;101737.28;5042043;28;20025;-82
2022/03/11 11:11:30;;;;;;;21.63;9.20;;;;;;;2.39;36.07;101736.53;5042119;28;20041;-82
2022/03/11 11:13:57;;;;;;;20.00;8.30;;;;;;;2.44;35.93;101762.94;5060682;28;20111;-82
2022/03/11 11:16:30;;;;;;;16.85;9.65;;;;;;;2.39;36.33;101754.22;5059776;28;20087;-81
2022/03/11 11:19:00;;;;;;;13.52;7.65;;;;;;;2.33;36.23;101733.19;5042631;28;20029;-80